Time;durP1;ratioP1;P1;durP2;ratioP2;P2;SDS_P1;SDS_P2;PMS_P1;PMS_P2;Temp;Humidity;BMP_temperature;BMP_pressure;BME280_temperature;BME280_humidity;BME280_pressure;Samples;Min_cycle;Max_cycle;Signal;HPM_P1;HPM_P2
2021/04/28 00:00:40;;;;;;;12.40;9.45;;;;;;;8.38;66.24;96764.92;1781632;79;21139;-82
2021/04/28 00:03:10;;;;;;;12.55;9.15;;;;;;;8.28;65.59;96760.02;1792023;79;21168;-81
2021/04/28 00:05:39;;;;;;;8.18;6.35;;;;;;;8.26;65.64;96751.41;1802098;79;21273;-81
2021/04/28 00:08:07;;;;;;;7.30;5.58;;;;;;;8.23;66.71;96749.01;1824283;78;21385;-82
2021/04/28 00:10:40;;;;;;;6.53;4.60;;;;;;;8.16;67.03;96752.60;1794274;79;21258;-82
2021/04/28 00:13:13;;;;;;;10.23;7.78;;;;;;;8.15;67.83;96755.33;1783880;79;21592;-83
2021/04/28 00:15:45;;;;;;;9.75;5.90;;;;;;;8.06;69.10;96765.57;1789622;79;21186;-82
2021/04/28 00:18:15;;;;;;;8.10;5.78;;;;;;;8.04;67.62;96765.33;1806885;79;21259;-82
2021/04/28 00:20:43;;;;;;;15.80;8.93;;;;;;;8.02;69.98;96766.77;1785151;79;21752;-81
2021/04/28 00:23:15;;;;;;;15.32;9.18;;;;;;;7.91;71.54;96763.63;1743018;82;21585;-81
2021/04/28 00:25:44;;;;;;;10.65;6.70;;;;;;;7.91;71.54;96763.63;1795855;79;21637;-81
2021/04/28 00:28:12;;;;;;;12.93;9.23;;;;;;;7.65;70.24;96767.71;1822970;79;21171;-80
2021/04/28 00:30:40;;;;;;;14.87;9.20;;;;;;;7.65;70.24;96767.71;1820263;79;21147;-81
2021/04/28 00:33:07;;;;;;;15.98;10.78;;;;;;;7.61;72.73;96769.36;1793667;78;21133;-81
2021/04/28 00:35:35;;;;;;;16.65;10.70;;;;;;;7.61;72.73;96769.36;1726545;82;21158;-82
2021/04/28 00:38:06;;;;;;;14.03;7.60;;;;;;;7.58;72.10;96780.07;1751926;82;21613;-80
2021/04/28 00:40:37;;;;;;;12.70;7.50;;;;;;;7.58;72.10;96780.07;1736793;82;21134;-82
2021/04/28 00:43:08;;;;;;;11.30;8.53;;;;;;;7.45;72.88;96786.23;1733224;82;21235;-83
2021/04/28 00:45:37;;;;;;;9.23;7.03;;;;;;;7.29;72.54;96806.16;1779996;81;21101;-83
2021/04/28 00:48:35;;;;;;;19.45;10.23;;;;;;;7.24;73.14;96796.94;1772313;79;21723;-82
2021/04/28 00:51:11;;;;;;;12.15;8.05;;;;;;;7.10;73.20;96790.89;1795196;78;21281;-81
2021/04/28 00:53:42;;;;;;;10.08;7.15;;;;;;;7.03;72.77;96798.38;1816112;78;21140;-81
2021/04/28 00:56:19;;;;;;;14.13;10.68;;;;;;;7.03;72.77;96798.38;1791954;80;21163;-79
2021/04/28 00:58:50;;;;;;;14.75;11.95;;;;;;;6.97;74.64;96799.27;1785728;80;21167;-79
2021/04/28 01:01:17;;;;;;;9.70;7.60;;;;;;;6.88;76.41;96807.30;1792381;80;21135;-78
2021/04/28 01:03:49;;;;;;;10.43;8.83;;;;;;;6.79;77.54;96799.62;1793772;80;21151;-77
2021/04/28 01:06:17;;;;;;;15.80;10.78;;;;;;;6.73;77.46;96814.43;1767772;80;21273;-77
2021/04/28 01:08:44;;;;;;;15.25;9.75;;;;;;;6.66;77.51;96807.49;1793178;80;21165;-78
2021/04/28 01:11:12;;;;;;;14.20;9.30;;;;;;;6.61;78.59;96810.06;1791272;80;21271;-78
2021/04/28 01:13:48;;;;;;;17.30;13.00;;;;;;;6.59;78.32;96812.77;1781880;79;21281;-79
2021/04/28 01:16:16;;;;;;;13.80;10.50;;;;;;;6.50;78.53;96814.25;1793482;80;21522;-79
2021/04/28 01:18:43;;;;;;;17.62;12.53;;;;;;;6.48;80.31;96810.89;1781817;80;21227;-79
2021/04/28 01:21:11;;;;;;;9.78;6.97;;;;;;;6.44;78.11;96802.05;1793620;80;21135;-79
2021/04/28 01:23:40;;;;;;;13.98;6.75;;;;;;;6.41;78.51;96811.77;1789904;80;21146;-76
2021/04/28 01:26:10;;;;;;;14.38;10.70;;;;;;;6.37;78.71;96814.25;1759527;81;21135;-78
2021/04/28 01:28:40;;;;;;;13.30;8.10;;;;;;;6.29;79.52;96810.46;1776207;80;21237;-78
2021/04/28 01:31:12;;;;;;;16.67;12.65;;;;;;;6.27;79.85;96811.88;1754614;80;21133;-78
2021/04/28 01:34:01;;;;;;;12.73;10.45;;;;;;;6.24;80.48;96810.32;1806071;79;28318;-77
2021/04/28 01:36:37;;;;;;;13.08;9.00;;;;;;;6.32;80.10;96808.47;1729455;83;21732;-78
2021/04/28 01:39:09;;;;;;;12.80;9.90;;;;;;;6.30;79.83;96809.52;1732126;83;21306;-77
2021/04/28 01:41:43;;;;;;;13.43;10.03;;;;;;;6.28;81.40;96807.47;1686309;83;21473;-77
2021/04/28 01:44:19;;;;;;;14.13;9.28;;;;;;;6.22;80.80;96799.11;1730516;83;21276;-78
2021/04/28 01:46:48;;;;;;;16.77;12.90;;;;;;;6.18;80.21;96794.19;1716261;83;21109;-78
2021/04/28 01:49:18;;;;;;;15.25;11.73;;;;;;;6.13;82.07;96797.56;1750542;82;21157;-79
2021/04/28 01:51:48;;;;;;;16.73;10.65;;;;;;;6.12;81.27;96798.05;1749941;82;21763;-79
2021/04/28 01:54:20;;;;;;;15.10;11.78;;;;;;;6.07;81.07;96787.89;1750855;82;21235;-78
2021/04/28 01:56:50;;;;;;;9.85;7.55;;;;;;;6.06;80.74;96789.31;1733441;82;21549;-78
2021/04/28 01:59:32;;;;;;;9.65;6.20;;;;;;;6.07;81.28;96789.20;1736209;82;21286;-79
2021/04/28 02:02:05;;;;;;;9.90;7.05;;;;;;;6.03;81.50;96787.71;1745816;82;21279;-79
2021/04/28 02:04:37;;;;;;;12.53;7.90;;;;;;;5.99;81.53;96790.18;1741629;82;21260;-80
2021/04/28 02:07:05;;;;;;;12.23;8.73;;;;;;;5.96;81.92;96790.83;1721696;82;21152;-78
2021/04/28 02:09:32;;;;;;;16.70;10.10;;;;;;;5.89;81.85;96797.75;1703536;82;21546;-77
2021/04/28 02:12:00;;;;;;;12.65;7.62;;;;;;;5.85;81.83;96804.59;1714376;83;21547;-77
2021/04/28 02:14:32;;;;;;;14.47;12.13;;;;;;;5.83;81.97;96797.34;1716391;83;21196;-78
2021/04/28 02:17:05;;;;;;;10.90;7.85;;;;;;;5.77;84.00;96792.87;1713377;83;21321;-78
2021/04/28 02:19:39;;;;;;;14.95;9.60;;;;;;;5.79;84.07;96791.00;1701608;84;21318;-79
2021/04/28 02:22:08;;;;;;;11.80;8.80;;;;;;;5.80;83.29;96783.98;1701966;83;21293;-77
2021/04/28 02:24:48;;;;;;;9.45;7.37;;;;;;;5.79;81.86;96784.45;1701423;83;21266;-78
2021/04/28 02:27:18;;;;;;;15.83;10.65;;;;;;;5.78;81.77;96787.19;1722123;83;21160;-79
2021/04/28 02:29:46;;;;;;;14.68;11.05;;;;;;;5.76;82.19;96781.21;1702035;84;21212;-78
2021/04/28 02:32:14;;;;;;;19.17;11.80;;;;;;;5.74;81.93;96781.77;1727267;83;21178;-77
2021/04/28 02:34:44;;;;;;;14.25;10.28;;;;;;;5.73;83.06;96782.71;1711272;83;21324;-80
2021/04/28 02:37:24;;;;;;;14.58;11.03;;;;;;;5.74;82.17;96786.55;1704948;84;21131;-78
2021/04/28 02:40:14;;;;;;;18.90;13.10;;;;;;;5.73;82.67;96782.71;1736370;82;21243;-78
2021/04/28 02:42:46;;;;;;;15.90;11.60;;;;;;;5.75;83.38;96786.89;1678963;85;21283;-80
2021/04/28 02:45:18;;;;;;;10.75;8.40;;;;;;;5.76;82.90;96788.58;1742256;82;21617;-77
2021/04/28 02:47:47;;;;;;;17.05;11.55;;;;;;;5.77;82.36;96786.81;1742069;82;21558;-77
2021/04/28 02:50:23;;;;;;;15.83;11.88;;;;;;;5.79;83.07;96783.15;1688246;84;21298;-79
2021/04/28 02:53:24;;;;;;;18.95;12.75;;;;;;;5.91;82.20;96786.73;1782120;79;22966;-78
2021/04/28 02:55:58;;;;;;;14.63;10.03;;;;;;;5.85;83.28;96789.76;1733717;82;21143;-77
2021/04/28 02:58:27;;;;;;;16.32;10.15;;;;;;;5.89;81.93;96794.31;1719478;83;21192;-77
2021/04/28 03:01:02;;;;;;;15.00;11.48;;;;;;;5.90;82.68;96789.45;1724640;83;21597;-77
2021/04/28 03:03:34;;;;;;;10.65;7.60;;;;;;;5.91;82.34;96785.41;1726399;82;21773;-78
2021/04/28 03:06:04;;;;;;;16.37;11.03;;;;;;;5.97;82.29;96786.79;1753410;82;21112;-79
2021/04/28 03:08:41;;;;;;;10.28;7.30;;;;;;;5.93;81.52;96786.16;1729403;82;21152;-77
2021/04/28 03:11:10;;;;;;;15.45;10.63;;;;;;;5.96;81.88;96782.50;1729652;82;21191;-79
2021/04/28 03:13:37;;;;;;;16.85;11.22;;;;;;;5.95;82.87;96793.90;1725981;83;21126;-78
2021/04/28 03:16:06;;;;;;;11.95;9.45;;;;;;;5.93;82.37;96790.09;1697519;83;21127;-79
2021/04/28 03:18:37;;;;;;;13.83;10.55;;;;;;;5.94;81.94;96804.84;1706905;82;21457;-78
2021/04/28 03:21:08;;;;;;;12.75;9.65;;;;;;;5.96;82.53;96800.81;1716542;82;21124;-79
2021/04/28 03:23:38;;;;;;;16.02;10.72;;;;;;;5.98;81.66;96803.34;1731939;82;21660;-79
2021/04/28 03:26:05;;;;;;;10.60;8.43;;;;;;;6.03;81.75;96807.82;1742891;82;21538;-79
2021/04/28 03:28:32;;;;;;;14.45;8.78;;;;;;;6.04;81.57;96803.78;1743356;82;21101;-78
2021/04/28 03:31:00;;;;;;;14.13;10.60;;;;;;;6.06;82.68;96811.06;1725693;83;21186;-78
2021/04/28 03:33:28;;;;;;;14.58;10.25;;;;;;;6.08;81.52;96811.81;1698082;82;21285;-78
2021/04/28 03:36:16;;;;;;;14.50;10.45;;;;;;;6.15;82.97;96815.31;1781417;79;23118;-78
2021/04/28 03:38:48;;;;;;;12.73;8.48;;;;;;;5.91;82.08;96788.03;1723751;82;21136;-77
2021/04/28 03:41:16;;;;;;;13.43;9.75;;;;;;;6.11;82.35;96815.17;1753766;82;21595;-78
2021/04/28 03:43:45;;;;;;;12.90;10.03;;;;;;;6.06;82.18;96811.06;1743310;82;21570;-78
2021/04/28 03:46:13;;;;;;;11.88;8.95;;;;;;;6.05;83.43;96809.88;1755288;82;21144;-78
2021/04/28 03:48:43;;;;;;;12.35;10.40;;;;;;;6.10;81.74;96813.00;1735621;82;21637;-77
2021/04/28 03:51:10;;;;;;;10.13;6.95;;;;;;;6.14;81.34;96817.11;1730221;82;21127;-78
2021/04/28 03:53:41;;;;;;;7.00;5.37;;;;;;;6.17;82.22;96820.81;1721234;83;21633;-78
2021/04/28 03:56:08;;;;;;;12.37;8.73;;;;;;;6.14;81.61;96823.66;1725788;82;21084;-78
2021/04/28 03:58:35;;;;;;;8.30;5.97;;;;;;;6.12;81.27;96820.29;1700873;82;21123;-78
2021/04/28 04:01:05;;;;;;;12.33;8.23;;;;;;;6.15;81.81;96821.86;1754224;82;21124;-78
2021/04/28 04:03:34;;;;;;;9.03;6.53;;;;;;;6.12;81.70;96818.98;1755090;82;21628;-77
2021/04/28 04:06:12;;;;;;;12.18;9.28;;;;;;;6.16;81.83;96837.94;1668694;83;21192;-77
2021/04/28 04:08:41;;;;;;;11.35;8.88;;;;;;;6.12;82.55;96824.70;1724197;82;21640;-78
2021/04/28 04:11:09;;;;;;;10.45;7.97;;;;;;;6.17;81.42;96825.22;1739996;82;21569;-77
2021/04/28 04:13:38;;;;;;;14.80;9.48;;;;;;;6.18;80.80;96834.27;1755364;82;21128;-78
2021/04/28 04:16:05;;;;;;;9.45;5.87;;;;;;;6.22;80.90;96835.75;1747878;82;21105;-78
2021/04/28 04:18:34;;;;;;;8.45;6.53;;;;;;;6.25;80.70;96839.48;1755072;81;21132;-77
2021/04/28 04:21:02;;;;;;;12.73;8.30;;;;;;;6.22;81.70;96830.97;1745024;82;21112;-78
2021/04/28 04:23:33;;;;;;;12.43;7.90;;;;;;;6.22;81.52;96833.13;1754770;82;21124;-78
2021/04/28 04:26:15;;;;;;;9.80;6.95;;;;;;;6.20;80.90;96828.47;1754803;81;21413;-77
2021/04/28 04:29:03;;;;;;;11.95;8.10;;;;;;;6.21;81.21;96834.07;1746618;81;21135;-77
2021/04/28 04:31:49;;;;;;;10.35;6.87;;;;;;;6.24;81.21;96831.71;1730378;82;21117;-78
2021/04/28 04:34:35;;;;;;;7.80;6.28;;;;;;;6.28;80.50;96834.95;1722671;83;21159;-78
2021/04/28 04:37:14;;;;;;;11.35;8.90;;;;;;;6.31;80.93;96830.84;1757082;79;22340;-77
2021/04/28 04:39:58;;;;;;;10.32;6.47;;;;;;;6.23;80.53;96841.81;1744139;82;21109;-78
2021/04/28 04:42:36;;;;;;;10.30;7.53;;;;;;;6.28;80.47;96841.50;1727686;83;21164;-79
2021/04/28 04:45:22;;;;;;;10.82;5.58;;;;;;;6.29;80.85;96846.66;1743426;82;21104;-78
2021/04/28 04:47:50;;;;;;;11.30;8.65;;;;;;;6.31;80.37;96846.06;1722534;83;21688;-79
2021/04/28 04:50:17;;;;;;;9.83;7.83;;;;;;;6.31;80.12;96841.30;1726490;82;21270;-78
2021/04/28 04:52:44;;;;;;;10.85;8.23;;;;;;;6.33;80.27;96842.88;1729454;82;21100;-78
2021/04/28 04:55:13;;;;;;;8.90;7.72;;;;;;;6.33;80.39;96837.64;1747995;82;21108;-79
2021/04/28 04:57:40;;;;;;;8.45;6.10;;;;;;;6.40;80.10;96839.38;1741484;82;21449;-78
2021/04/28 05:00:10;;;;;;;8.78;4.62;;;;;;;6.43;80.38;96840.95;1729680;82;21653;-77
2021/04/28 05:02:39;;;;;;;11.20;7.08;;;;;;;6.45;80.67;96843.82;1742955;82;21589;-78
2021/04/28 05:05:08;;;;;;;12.55;8.80;;;;;;;6.43;80.47;96834.40;1727246;82;21693;-78
2021/04/28 05:07:35;;;;;;;11.35;8.38;;;;;;;6.43;81.27;96840.49;1743685;82;21149;-78
2021/04/28 05:10:06;;;;;;;13.90;7.92;;;;;;;6.47;80.33;96852.42;1721952;83;21148;-78
2021/04/28 05:12:36;;;;;;;10.13;7.60;;;;;;;6.49;80.43;96840.06;1703368;83;21700;-78
2021/04/28 05:15:05;;;;;;;8.35;6.33;;;;;;;6.53;80.42;96844.16;1693474;85;21290;-79
2021/04/28 05:17:33;;;;;;;11.22;8.15;;;;;;;6.53;80.83;96833.69;1693773;85;21219;-78
2021/04/28 05:20:00;;;;;;;10.70;8.05;;;;;;;6.56;80.20;96833.95;1712663;83;21563;-78
2021/04/28 05:22:28;;;;;;;11.80;8.25;;;;;;;6.65;79.88;96842.94;1719487;83;21286;-79
2021/04/28 05:25:24;;;;;;;9.70;6.40;;;;;;;6.77;79.98;96841.28;1825383;77;22827;-78
2021/04/28 05:27:51;;;;;;;10.85;7.47;;;;;;;6.74;80.03;96854.09;1827941;78;21241;-78
2021/04/28 05:30:22;;;;;;;10.28;7.37;;;;;;;6.71;80.33;96854.33;1804306;78;21569;-79
2021/04/28 05:32:50;;;;;;;7.83;6.33;;;;;;;6.73;80.25;96861.58;1797641;78;21565;-79
2021/04/28 05:35:17;;;;;;;8.48;6.95;;;;;;;6.77;79.47;96857.00;1800856;78;21111;-78
2021/04/28 05:37:45;;;;;;;8.13;6.70;;;;;;;6.87;80.06;96865.42;1799855;79;21136;-78
2021/04/28 05:40:14;;;;;;;7.22;6.37;;;;;;;6.92;79.41;96868.17;1797077;80;21398;-78
2021/04/28 05:42:45;;;;;;;7.00;5.45;;;;;;;6.94;79.31;96852.73;1805941;78;21632;-78
2021/04/28 05:45:14;;;;;;;9.30;6.97;;;;;;;6.98;79.03;96844.19;1805224;78;21108;-79
2021/04/28 05:47:42;;;;;;;8.65;6.17;;;;;;;6.97;79.30;96847.27;1822382;78;21115;-79
2021/04/28 05:50:13;;;;;;;9.85;7.03;;;;;;;7.02;78.74;96850.88;1817024;78;21779;-78
2021/04/28 05:52:41;;;;;;;9.85;6.85;;;;;;;7.10;78.92;96852.97;1825299;78;21242;-78
2021/04/28 05:55:11;;;;;;;7.70;6.00;;;;;;;7.14;78.65;96846.09;1807641;78;21343;-78
2021/04/28 05:57:41;;;;;;;7.72;6.17;;;;;;;7.19;78.67;96845.77;1817248;78;21149;-78
2021/04/28 06:00:12;;;;;;;6.22;4.95;;;;;;;7.24;78.62;96844.95;1749068;81;21117;-78
2021/04/28 06:02:42;;;;;;;11.40;6.83;;;;;;;7.22;78.32;96844.25;1739617;81;21565;-78
2021/04/28 06:05:12;;;;;;;8.28;6.10;;;;;;;7.16;77.96;96845.52;1760541;81;21176;-78
2021/04/28 06:07:40;;;;;;;8.45;5.33;;;;;;;7.19;78.17;96854.95;1762599;80;21573;-77
2021/04/28 06:10:11;;;;;;;7.33;6.08;;;;;;;7.19;78.12;96851.84;1728197;81;21176;-76
2021/04/28 06:12:40;;;;;;;7.42;5.90;;;;;;;7.23;78.20;96849.01;1758912;81;21163;-78
2021/04/28 06:15:10;;;;;;;6.95;5.97;;;;;;;7.30;78.32;96850.24;1760663;81;21143;-78
2021/04/28 06:17:40;;;;;;;7.37;5.67;;;;;;;7.41;77.96;96861.30;1741024;81;21172;-77
2021/04/28 06:20:14;;;;;;;9.13;5.75;;;;;;;7.41;77.96;96861.30;1744250;81;21131;-78
2021/04/28 06:22:42;;;;;;;8.58;5.42;;;;;;;7.36;77.85;96859.00;1770189;81;21278;-77
2021/04/28 06:25:13;;;;;;;9.10;6.87;;;;;;;7.34;77.65;96853.84;1751089;81;21163;-78
2021/04/28 06:27:40;;;;;;;9.23;6.00;;;;;;;7.44;78.14;96855.81;1741949;81;21144;-78
2021/04/28 06:30:10;;;;;;;9.30;7.10;;;;;;;7.53;77.85;96806.63;1726882;83;21580;-78
2021/04/28 06:32:38;;;;;;;6.55;5.28;;;;;;;7.88;77.90;96857.48;1774423;80;21120;-77
2021/04/28 06:35:07;;;;;;;7.05;5.67;;;;;;;7.88;77.90;96857.48;1756589;82;21164;-78
2021/04/28 06:37:36;;;;;;;7.83;6.45;;;;;;;7.88;77.61;96857.48;1751079;81;21676;-78
2021/04/28 06:40:07;;;;;;;8.25;6.80;;;;;;;7.88;77.61;96857.48;1759158;81;21179;-77
2021/04/28 06:42:35;;;;;;;8.00;6.70;;;;;;;8.05;77.61;96859.70;1738815;81;21125;-78
2021/04/28 06:45:07;;;;;;;8.25;6.55;;;;;;;8.22;77.56;96860.23;1747013;81;21151;-77
2021/04/28 06:47:37;;;;;;;6.42;5.72;;;;;;;8.40;78.09;96865.42;1758736;81;21152;-77
2021/04/28 06:50:06;;;;;;;6.28;5.65;;;;;;;8.56;77.77;96865.63;1744442;81;21559;-77
2021/04/28 06:52:34;;;;;;;6.60;5.33;;;;;;;8.67;77.70;96861.72;1759486;81;21164;-77
2021/04/28 06:55:04;;;;;;;7.90;4.80;;;;;;;8.83;77.50;96864.48;1758728;81;21123;-77
2021/04/28 06:57:35;;;;;;;5.92;5.33;;;;;;;8.93;77.22;96857.56;1761019;81;21572;-78
2021/04/28 07:00:07;;;;;;;5.75;4.72;;;;;;;8.99;76.69;96850.99;1754124;81;21128;-77
2021/04/28 07:02:34;;;;;;;5.97;4.83;;;;;;;9.04;76.56;96850.14;1762039;81;21147;-77
2021/04/28 07:05:02;;;;;;;6.37;4.83;;;;;;;9.09;76.23;96845.84;1762008;81;21127;-78
2021/04/28 07:07:31;;;;;;;7.70;4.62;;;;;;;9.12;75.81;96846.43;1730365;81;21627;-78
2021/04/28 07:09:58;;;;;;;6.80;5.70;;;;;;;9.19;75.59;96853.36;1740242;81;21168;-78
2021/04/28 07:12:25;;;;;;;6.85;5.75;;;;;;;9.27;75.63;96849.66;1755815;81;21131;-79
2021/04/28 07:14:53;;;;;;;9.05;5.15;;;;;;;9.36;75.54;96855.50;1759596;81;21729;-79
2021/04/28 07:17:20;;;;;;;7.22;5.12;;;;;;;9.40;75.06;96856.58;1760933;81;21147;-78
2021/04/28 07:19:48;;;;;;;9.40;5.65;;;;;;;9.28;74.51;96859.22;1758720;81;21167;-79
2021/04/28 07:22:15;;;;;;;5.85;5.20;;;;;;;9.07;74.11;96857.80;1755757;81;21139;-78
2021/04/28 07:24:42;;;;;;;9.25;6.42;;;;;;;8.98;73.92;96860.66;1741947;81;21159;-82
2021/04/28 07:27:09;;;;;;;7.33;6.42;;;;;;;8.89;74.00;96859.59;1718853;82;21290;-79
2021/04/28 07:29:39;;;;;;;9.40;6.83;;;;;;;8.84;73.89;96843.32;1747778;82;21681;-79
2021/04/28 07:32:08;;;;;;;8.83;6.60;;;;;;;9.10;74.31;96865.42;1728710;82;21588;-78
2021/04/28 07:34:36;;;;;;;4.60;3.58;;;;;;;9.34;74.30;96861.84;1732762;82;21128;-78
2021/04/28 07:37:07;;;;;;;7.42;5.95;;;;;;;9.49;73.60;96862.43;1743484;82;21465;-76
2021/04/28 07:39:36;;;;;;;6.53;4.80;;;;;;;9.51;72.66;96866.60;1735422;82;21138;-78
2021/04/28 07:42:03;;;;;;;8.90;5.80;;;;;;;9.65;72.35;96872.08;1743519;81;21637;-78
2021/04/28 07:44:31;;;;;;;7.53;3.85;;;;;;;9.61;71.43;96880.34;1744985;81;21591;-83
2021/04/28 07:47:01;;;;;;;9.15;5.60;;;;;;;9.70;71.79;96876.97;1746017;82;21145;-77
2021/04/28 07:49:28;;;;;;;6.53;5.70;;;;;;;9.72;70.80;96874.20;1738427;82;21146;-80
2021/04/28 07:51:56;;;;;;;6.65;5.35;;;;;;;9.96;71.48;96864.81;1743365;82;21682;-77
2021/04/28 07:54:26;;;;;;;5.72;5.20;;;;;;;10.29;71.08;96866.97;1739318;82;21179;-76
2021/04/28 07:56:54;;;;;;;5.33;4.78;;;;;;;10.54;69.03;96867.58;1727511;83;21186;-77
2021/04/28 07:59:21;;;;;;;7.33;4.92;;;;;;;10.65;69.97;96872.78;1725941;83;21577;-77
2021/04/28 08:01:51;;;;;;;5.53;4.97;;;;;;;10.66;69.51;96870.97;1764608;81;21592;-79
2021/04/28 08:04:20;;;;;;;5.40;4.85;;;;;;;10.87;68.05;96878.39;1730029;82;21168;-77
2021/04/28 08:06:48;;;;;;;6.20;4.95;;;;;;;11.05;68.54;96870.69;1729562;82;21555;-77
2021/04/28 08:09:18;;;;;;;5.95;4.85;;;;;;;11.33;68.83;96868.80;1715459;84;21178;-79
2021/04/28 08:11:46;;;;;;;6.05;5.35;;;;;;;11.48;64.59;96867.45;1734464;82;21213;-79
2021/04/28 08:14:14;;;;;;;4.60;3.25;;;;;;;11.39;65.56;96868.26;1704389;84;21594;-79
2021/04/28 08:16:41;;;;;;;6.87;5.33;;;;;;;11.47;65.73;96868.42;1723287;83;21136;-79
2021/04/28 08:19:08;;;;;;;5.17;4.67;;;;;;;11.16;63.07;96865.83;1726511;82;21199;-80
2021/04/28 08:21:36;;;;;;;6.90;4.83;;;;;;;11.05;65.06;96868.05;1714456;82;21130;-83
2021/04/28 08:24:04;;;;;;;7.25;4.72;;;;;;;10.91;63.78;96867.09;1714052;83;21574;-80
2021/04/28 08:26:31;;;;;;;9.70;5.70;;;;;;;10.95;64.41;96868.48;1726614;82;21633;-81
2021/04/28 08:28:59;;;;;;;4.75;4.25;;;;;;;10.74;64.43;96869.84;1738968;82;21530;-81
2021/04/28 08:31:26;;;;;;;5.53;4.15;;;;;;;10.85;65.61;96865.81;1762546;81;21108;-81
2021/04/28 08:33:54;;;;;;;10.35;5.17;;;;;;;11.01;64.99;96860.08;1752593;80;21164;-80
2021/04/28 08:36:22;;;;;;;9.48;5.30;;;;;;;11.22;65.67;96860.02;1759610;81;21143;-80
2021/04/28 08:38:49;;;;;;;9.00;4.97;;;;;;;11.40;65.30;96857.59;1752274;81;21136;-80
2021/04/28 08:41:16;;;;;;;6.30;4.97;;;;;;;11.51;64.40;96854.00;1758724;81;21130;-80
2021/04/28 08:43:43;;;;;;;6.28;5.37;;;;;;;11.35;63.35;96844.44;1756393;81;21616;-81
2021/04/28 08:46:11;;;;;;;7.65;5.10;;;;;;;11.49;64.33;96845.87;1754015;81;21144;-82
2021/04/28 08:48:38;;;;;;;6.10;4.47;;;;;;;11.56;63.08;96849.13;1733869;82;21191;-79
2021/04/28 08:51:06;;;;;;;7.17;5.78;;;;;;;11.53;62.91;96849.89;1779680;80;21151;-80
2021/04/28 08:53:36;;;;;;;6.80;5.50;;;;;;;11.48;62.85;96845.52;1765289;80;21149;-80
2021/04/28 08:56:08;;;;;;;8.40;5.60;;;;;;;11.67;63.11;96848.20;1760350;81;21154;-81
2021/04/28 08:58:37;;;;;;;6.58;4.90;;;;;;;11.76;63.61;96845.72;1767899;80;21160;-81
2021/04/28 09:01:05;;;;;;;11.63;5.30;;;;;;;11.71;62.62;96842.16;1735266;81;21594;-81
2021/04/28 09:03:43;;;;;;;6.10;5.05;;;;;;;11.72;62.80;96846.48;1754827;81;21184;-81
2021/04/28 09:06:35;;;;;;;5.62;4.83;;;;;;;11.87;62.80;96836.35;1743736;81;21208;-80
2021/04/28 09:09:18;;;;;;;7.17;5.53;;;;;;;11.88;62.19;96846.77;1752497;82;21199;-80
2021/04/28 09:11:54;;;;;;;6.08;5.28;;;;;;;11.85;62.73;96843.57;1764688;81;21628;-83
2021/04/28 09:14:28;;;;;;;8.58;5.42;;;;;;;11.74;61.90;96837.91;1752052;82;21147;-81
2021/04/28 09:17:02;;;;;;;5.50;4.20;;;;;;;11.90;61.54;96848.44;1755000;81;21194;-81
2021/04/28 09:19:54;;;;;;;8.38;5.33;;;;;;;11.79;62.34;96842.31;1720085;82;21172;-83
2021/04/28 09:22:39;;;;;;;8.18;5.20;;;;;;;11.63;62.24;96838.87;1823817;77;22765;-79
2021/04/28 09:25:52;;;;;;;4.53;3.42;;;;;;;11.84;62.92;96837.94;1763418;80;21088;-81
2021/04/28 09:28:38;;;;;;;7.85;5.20;;;;;;;12.01;61.69;96834.64;1765238;81;21652;-76
2021/04/28 09:31:12;;;;;;;3.95;3.17;;;;;;;12.16;62.03;96831.09;1752181;81;21137;-82
2021/04/28 09:33:50;;;;;;;3.75;3.02;;;;;;;12.36;61.14;96832.41;1752720;81;21119;-78
2021/04/28 09:36:30;;;;;;;6.67;3.58;;;;;;;12.47;60.91;96844.63;1767695;81;21277;-79
2021/04/28 09:39:07;;;;;;;7.30;4.65;;;;;;;12.49;60.24;96831.61;1753868;81;21179;-77
2021/04/28 09:41:44;;;;;;;5.37;4.08;;;;;;;12.45;60.53;96836.84;1766247;81;21155;-78
2021/04/28 09:44:29;;;;;;;14.30;6.33;;;;;;;12.59;59.80;96832.92;1719862;81;21185;-79
2021/04/28 09:47:16;;;;;;;7.40;4.47;;;;;;;12.53;59.27;96826.05;1757032;81;21528;-79
2021/04/28 09:49:57;;;;;;;5.03;4.42;;;;;;;12.61;59.92;96817.77;1749998;81;21189;-76
2021/04/28 09:52:41;;;;;;;3.47;2.92;;;;;;;12.72;59.30;96816.75;1739346;82;21147;-78
2021/04/28 09:55:18;;;;;;;5.60;4.33;;;;;;;12.73;59.43;96818.89;1735335;81;21170;-78
2021/04/28 09:57:52;;;;;;;5.03;4.20;;;;;;;12.54;59.49;96815.81;1763367;81;21559;-79
2021/04/28 10:00:28;;;;;;;6.92;4.40;;;;;;;12.66;59.59;96816.01;1746741;81;21180;-78
2021/04/28 10:03:00;;;;;;;6.05;5.05;;;;;;;12.69;60.34;96809.09;1739742;82;21620;-77
2021/04/28 10:05:32;;;;;;;7.03;3.15;;;;;;;12.79;60.51;96810.41;1758066;80;21128;-78
2021/04/28 10:08:20;;;;;;;3.45;2.50;;;;;;;13.05;59.71;96815.86;1746871;81;21404;-78
2021/04/28 10:11:00;;;;;;;3.65;3.30;;;;;;;13.11;59.25;96809.15;1702157;82;21200;-77
2021/04/28 10:13:30;;;;;;;6.05;3.87;;;;;;;12.93;59.19;96811.24;1750374;82;21314;-78
2021/04/28 10:16:07;;;;;;;4.70;4.20;;;;;;;12.95;59.26;96806.64;1742594;82;22160;-76
2021/04/28 10:18:36;;;;;;;4.97;4.35;;;;;;;12.89;58.58;96813.00;1733950;82;21166;-77
2021/04/28 10:21:04;;;;;;;7.78;4.42;;;;;;;13.15;59.56;96799.10;1730812;82;21260;-79
2021/04/28 10:23:34;;;;;;;5.92;4.47;;;;;;;13.31;58.42;96799.32;1747806;82;21617;-76
2021/04/28 10:26:01;;;;;;;2.92;2.52;;;;;;;13.43;58.89;96802.63;1775542;79;21128;-77
2021/04/28 10:28:29;;;;;;;4.97;3.87;;;;;;;13.41;58.23;96802.75;1782571;80;21596;-78
2021/04/28 10:30:59;;;;;;;6.97;3.77;;;;;;;13.40;58.07;96789.20;1767801;80;21167;-78
2021/04/28 10:33:35;;;;;;;7.92;4.72;;;;;;;13.45;57.95;96803.79;1778737;80;21096;-79
2021/04/28 10:36:06;;;;;;;11.45;4.30;;;;;;;13.24;58.25;96792.45;1760854;80;21120;-79
2021/04/28 10:38:34;;;;;;;6.20;4.40;;;;;;;13.30;57.80;96798.97;1781286;80;21148;-78
2021/04/28 10:41:01;;;;;;;4.67;3.83;;;;;;;13.52;59.04;96799.55;1784841;80;21160;-77
2021/04/28 10:43:37;;;;;;;5.17;3.67;;;;;;;13.84;59.26;96792.94;1789540;79;21515;-76
2021/04/28 10:46:20;;;;;;;6.53;2.70;;;;;;;14.17;58.76;96796.71;1788486;78;21085;-78
2021/04/28 10:48:49;;;;;;;5.40;3.10;;;;;;;14.47;58.01;96797.75;1791169;80;21104;-77
2021/04/28 10:51:38;;;;;;;3.62;3.12;;;;;;;14.67;57.40;96786.46;1791382;79;21286;-77
2021/04/28 10:54:23;;;;;;;4.33;3.00;;;;;;;14.88;56.60;96792.74;1791262;79;21601;-77
2021/04/28 10:57:01;;;;;;;3.67;2.72;;;;;;;15.03;57.21;96779.71;1791410;79;21187;-77
2021/04/28 10:59:42;;;;;;;4.25;3.42;;;;;;;15.25;55.69;96788.92;1791038;80;21262;-81
2021/04/28 11:02:12;;;;;;;6.00;3.05;;;;;;;15.13;53.84;96784.37;1768696;80;21219;-78
2021/04/28 11:04:47;;;;;;;4.33;2.70;;;;;;;15.17;55.10;96788.05;1770105;80;21161;-78
2021/04/28 11:07:41;;;;;;;3.75;2.70;;;;;;;15.14;54.75;96790.53;1791588;80;21168;-77
2021/04/28 11:10:35;;;;;;;3.65;2.60;;;;;;;15.15;55.40;96791.69;1793697;80;21945;-78
2021/04/28 11:13:08;;;;;;;3.95;2.58;;;;;;;15.26;54.35;96796.38;1794507;80;21701;-77
2021/04/28 11:15:54;;;;;;;3.85;2.00;;;;;;;15.22;55.05;96791.89;1789121;79;21128;-77
2021/04/28 11:18:37;;;;;;;4.70;2.52;;;;;;;15.17;54.19;96795.53;1794782;80;21162;-75
2021/04/28 11:21:23;;;;;;;3.85;2.58;;;;;;;14.80;53.87;96792.19;1790488;79;21144;-75
2021/04/28 11:24:12;;;;;;;3.42;2.70;;;;;;;14.69;54.67;96791.13;1793803;80;21139;-77
2021/04/28 11:26:52;;;;;;;5.17;2.62;;;;;;;14.74;54.96;96788.85;1794754;79;21666;-77
2021/04/28 11:29:21;;;;;;;5.50;2.50;;;;;;;14.58;53.66;96792.67;1794583;79;21132;-78
2021/04/28 11:31:51;;;;;;;3.27;2.27;;;;;;;14.44;54.09;96786.12;1788059;80;21128;-79
2021/04/28 11:34:33;;;;;;;3.20;2.47;;;;;;;14.50;54.71;96790.31;1793922;79;21205;-78
2021/04/28 11:37:06;;;;;;;3.15;1.80;;;;;;;14.52;54.59;96784.87;1762580;81;21135;-78
2021/04/28 11:39:38;;;;;;;6.92;2.30;;;;;;;14.72;53.79;96784.66;1755957;82;21139;-79
2021/04/28 11:42:13;;;;;;;2.75;2.25;;;;;;;14.64;54.36;96780.95;1755196;81;21143;-78
2021/04/28 11:44:51;;;;;;;4.80;2.83;;;;;;;14.73;54.04;96782.36;1745448;82;21164;-77
2021/04/28 11:50:09;;;;;;;5.62;2.83;;;;;;;14.66;53.50;96776.84;1786278;79;23218;-83
2021/04/28 11:52:39;;;;;;;8.18;2.85;;;;;;;14.62;54.08;96776.30;1774015;78;21143;-78
2021/04/28 11:55:08;;;;;;;4.33;3.00;;;;;;;14.67;53.12;96777.18;1782841;79;21561;-78
2021/04/28 11:57:37;;;;;;;3.40;2.70;;;;;;;14.73;53.96;96777.90;1764173;81;21178;-78
2021/04/28 12:00:09;;;;;;;3.80;2.58;;;;;;;14.94;54.34;96771.38;1730667;83;21531;-79